Terminal Aerodrome Forecast
Issued by NWS Buffalo, NY

Home | Current Version | Previous Version | Text Only | Print | Product List | Glossary On
Versions: 1 2 3 4 5 6 7 8 9 10 11 12 13 14 15 16 17 18 19 20 21 22 23 24 25
000
FTUS41 KBUF 272320
TAFART
TAF
KART 272320Z 2800/2824 22012KT P6SM FEW250
     FM280300 20006KT P6SM -SHRA BKN060
     FM280900 22009KT P6SM VCSH OVC045
     FM281200 24011KT P6SM BKN035
     FM281800 25012KT P6SM SCT035=

USA.gov is the U.S. government's official web portal to all federal, state and local government web resources and services.